sensor_id;sensor_type;location;lat;lon;timestamp;P1;durP1;ratioP1;P2;durP2;ratioP2
4049;SDS011;2039;50.894;6.888;2024-01-15T00:02:05;38.10;;;13.32;;
4049;SDS011;2039;50.894;6.888;2024-01-15T00:04:35;37.10;;;13.30;;
4049;SDS011;2039;50.894;6.888;2024-01-15T00:07:02;37.95;;;12.00;;
4049;SDS011;2039;50.894;6.888;2024-01-15T00:09:28;38.60;;;12.20;;
4049;SDS011;2039;50.894;6.888;2024-01-15T00:11:54;36.77;;;13.80;;
4049;SDS011;2039;50.894;6.888;2024-01-15T00:14:19;35.30;;;12.00;;
4049;SDS011;2039;50.894;6.888;2024-01-15T00:16:45;43.93;;;12.90;;
4049;SDS011;2039;50.894;6.888;2024-01-15T00:19:11;30.52;;;11.75;;
4049;SDS011;2039;50.894;6.888;2024-01-15T00:21:37;38.83;;;11.30;;
4049;SDS011;2039;50.894;6.888;2024-01-15T00:24:03;37.67;;;13.13;;
4049;SDS011;2039;50.894;6.888;2024-01-15T00:26:29;40.73;;;12.20;;
4049;SDS011;2039;50.894;6.888;2024-01-15T00:28:54;35.93;;;12.53;;
4049;SDS011;2039;50.894;6.888;2024-01-15T00:31:20;35.73;;;11.77;;
4049;SDS011;2039;50.894;6.888;2024-01-15T00:33:46;42.70;;;15.00;;
4049;SDS011;2039;50.894;6.888;2024-01-15T00:36:11;37.80;;;11.90;;
4049;SDS011;2039;50.894;6.888;2024-01-15T00:38:38;36.35;;;13.98;;
4049;SDS011;2039;50.894;6.888;2024-01-15T00:41:04;40.87;;;11.90;;
4049;SDS011;2039;50.894;6.888;2024-01-15T00:43:29;34.47;;;12.90;;
4049;SDS011;2039;50.894;6.888;2024-01-15T00:45:55;35.50;;;13.23;;
4049;SDS011;2039;50.894;6.888;2024-01-15T00:48:21;44.20;;;14.13;;
4049;SDS011;2039;50.894;6.888;2024-01-15T00:50:46;44.27;;;11.90;;
4049;SDS011;2039;50.894;6.888;2024-01-15T00:53:12;37.80;;;13.30;;
4049;SDS011;2039;50.894;6.888;2024-01-15T00:55:38;35.50;;;11.57;;
4049;SDS011;2039;50.894;6.888;2024-01-15T00:58:03;35.93;;;12.07;;
4049;SDS011;2039;50.894;6.888;2024-01-15T01:00:29;42.33;;;12.53;;
4049;SDS011;2039;50.894;6.888;2024-01-15T01:02:55;36.57;;;13.30;;
4049;SDS011;2039;50.894;6.888;2024-01-15T01:05:20;39.87;;;12.90;;
4049;SDS011;2039;50.894;6.888;2024-01-15T01:07:46;38.63;;;13.37;;
4049;SDS011;2039;50.894;6.888;2024-01-15T01:10:12;35.03;;;12.50;;
4049;SDS011;2039;50.894;6.888;2024-01-15T01:12:37;39.33;;;12.37;;
4049;SDS011;2039;50.894;6.888;2024-01-15T01:15:03;37.83;;;11.43;;
4049;SDS011;2039;50.894;6.888;2024-01-15T01:17:29;37.10;;;13.95;;
4049;SDS011;2039;50.894;6.888;2024-01-15T01:19:55;32.00;;;11.10;;
4049;SDS011;2039;50.894;6.888;2024-01-15T01:22:21;47.73;;;14.40;;
4049;SDS011;2039;50.894;6.888;2024-01-15T01:24:47;37.80;;;13.23;;
4049;SDS011;2039;50.894;6.888;2024-01-15T01:27:12;35.67;;;13.17;;
4049;SDS011;2039;50.894;6.888;2024-01-15T01:29:38;41.93;;;14.93;;
4049;SDS011;2039;50.894;6.888;2024-01-15T01:32:03;44.00;;;14.83;;
4049;SDS011;2039;50.894;6.888;2024-01-15T01:34:29;41.97;;;14.37;;
4049;SDS011;2039;50.894;6.888;2024-01-15T01:36:57;36.10;;;12.55;;
4049;SDS011;2039;50.894;6.888;2024-01-15T01:39:23;36.43;;;12.97;;
4049;SDS011;2039;50.894;6.888;2024-01-15T01:41:49;42.87;;;14.87;;
4049;SDS011;2039;50.894;6.888;2024-01-15T01:44:14;39.93;;;14.63;;
4049;SDS011;2039;50.894;6.888;2024-01-15T01:46:40;41.50;;;12.77;;
4049;SDS011;2039;50.894;6.888;2024-01-15T01:49:06;42.80;;;13.00;;
4049;SDS011;2039;50.894;6.888;2024-01-15T01:51:34;39.13;;;14.10;;
4049;SDS011;2039;50.894;6.888;2024-01-15T01:54:02;35.30;;;11.90;;
4049;SDS011;2039;50.894;6.888;2024-01-15T01:56:29;34.67;;;12.68;;
4049;SDS011;2039;50.894;6.888;2024-01-15T01:58:55;39.67;;;12.55;;
4049;SDS011;2039;50.894;6.888;2024-01-15T02:01:21;46.53;;;16.50;;
4049;SDS011;2039;50.894;6.888;2024-01-15T02:03:47;40.00;;;15.07;;
4049;SDS011;2039;50.894;6.888;2024-01-15T02:06:13;42.28;;;14.45;;
4049;SDS011;2039;50.894;6.888;2024-01-15T02:08:39;42.97;;;14.50;;
4049;SDS011;2039;50.894;6.888;2024-01-15T02:11:08;37.75;;;12.63;;
4049;SDS011;2039;50.894;6.888;2024-01-15T02:13:34;38.20;;;13.40;;
4049;SDS011;2039;50.894;6.888;2024-01-15T02:16:00;44.77;;;15.40;;
4049;SDS011;2039;50.894;6.888;2024-01-15T02:18:25;34.70;;;12.97;;
4049;SDS011;2039;50.894;6.888;2024-01-15T02:20:51;44.07;;;15.30;;
4049;SDS011;2039;50.894;6.888;2024-01-15T02:23:19;36.00;;;12.68;;
4049;SDS011;2039;50.894;6.888;2024-01-15T02:25:46;43.23;;;13.20;;
4049;SDS011;2039;50.894;6.888;2024-01-15T02:28:12;40.30;;;14.30;;
4049;SDS011;2039;50.894;6.888;2024-01-15T02:30:41;41.53;;;13.55;;
4049;SDS011;2039;50.894;6.888;2024-01-15T02:33:07;39.35;;;14.07;;
4049;SDS011;2039;50.894;6.888;2024-01-15T02:35:34;39.15;;;14.35;;
4049;SDS011;2039;50.894;6.888;2024-01-15T02:38:03;36.15;;;12.18;;
4049;SDS011;2039;50.894;6.888;2024-01-15T02:40:30;38.58;;;14.02;;
4049;SDS011;2039;50.894;6.888;2024-01-15T02:42:55;36.67;;;12.67;;
4049;SDS011;2039;50.894;6.888;2024-01-15T02:45:21;41.50;;;13.77;;
4049;SDS011;2039;50.894;6.888;2024-01-15T02:47:47;41.35;;;15.18;;
4049;SDS011;2039;50.894;6.888;2024-01-15T02:50:13;34.63;;;12.70;;
4049;SDS011;2039;50.894;6.888;2024-01-15T02:52:39;38.00;;;13.80;;
4049;SDS011;2039;50.894;6.888;2024-01-15T02:55:05;37.95;;;16.02;;
4049;SDS011;2039;50.894;6.888;2024-01-15T02:57:31;39.88;;;13.95;;
4049;SDS011;2039;50.894;6.888;2024-01-15T02:59:57;37.03;;;14.20;;
4049;SDS011;2039;50.894;6.888;2024-01-15T03:02:22;41.70;;;14.57;;
4049;SDS011;2039;50.894;6.888;2024-01-15T03:04:48;42.03;;;16.93;;
4049;SDS011;2039;50.894;6.888;2024-01-15T03:07:13;42.20;;;15.20;;
4049;SDS011;2039;50.894;6.888;2024-01-15T03:09:39;38.20;;;13.77;;
4049;SDS011;2039;50.894;6.888;2024-01-15T03:12:05;38.20;;;13.50;;
4049;SDS011;2039;50.894;6.888;2024-01-15T03:14:31;42.17;;;13.85;;
4049;SDS011;2039;50.894;6.888;2024-01-15T03:16:57;40.63;;;14.00;;
4049;SDS011;2039;50.894;6.888;2024-01-15T03:19:22;40.87;;;15.10;;
4049;SDS011;2039;50.894;6.888;2024-01-15T03:21:48;38.97;;;12.50;;
4049;SDS011;2039;50.894;6.888;2024-01-15T03:24:13;37.93;;;13.17;;
4049;SDS011;2039;50.894;6.888;2024-01-15T03:26:39;39.20;;;13.73;;
4049;SDS011;2039;50.894;6.888;2024-01-15T03:29:05;38.70;;;13.93;;
4049;SDS011;2039;50.894;6.888;2024-01-15T03:31:31;38.92;;;15.07;;
4049;SDS011;2039;50.894;6.888;2024-01-15T03:33:56;34.60;;;14.43;;
4049;SDS011;2039;50.894;6.888;2024-01-15T03:36:22;40.50;;;12.90;;
4049;SDS011;2039;50.894;6.888;2024-01-15T03:38:48;39.93;;;16.20;;
4049;SDS011;2039;50.894;6.888;2024-01-15T03:41:16;35.95;;;13.50;;
4049;SDS011;2039;50.894;6.888;2024-01-15T03:43:42;36.90;;;14.47;;
4049;SDS011;2039;50.894;6.888;2024-01-15T03:46:07;34.77;;;13.23;;
4049;SDS011;2039;50.894;6.888;2024-01-15T03:48:33;38.23;;;12.70;;
4049;SDS011;2039;50.894;6.888;2024-01-15T03:50:59;42.37;;;14.20;;
4049;SDS011;2039;50.894;6.888;2024-01-15T03:53:24;34.60;;;12.20;;
4049;SDS011;2039;50.894;6.888;2024-01-15T03:55:50;39.40;;;16.23;;
4049;SDS011;2039;50.894;6.888;2024-01-15T03:58:16;42.05;;;14.15;;
4049;SDS011;2039;50.894;6.888;2024-01-15T04:00:42;35.10;;;12.83;;
4049;SDS011;2039;50.894;6.888;2024-01-15T04:03:08;41.60;;;14.13;;
4049;SDS011;2039;50.894;6.888;2024-01-15T04:05:34;41.00;;;15.40;;
4049;SDS011;2039;50.894;6.888;2024-01-15T04:07:59;42.30;;;13.07;;
4049;SDS011;2039;50.894;6.888;2024-01-15T04:10:25;36.20;;;13.00;;
4049;SDS011;2039;50.894;6.888;2024-01-15T04:12:51;34.37;;;12.87;;
4049;SDS011;2039;50.894;6.888;2024-01-15T04:15:17;37.07;;;13.90;;
4049;SDS011;2039;50.894;6.888;2024-01-15T04:17:43;43.97;;;14.17;;
4049;SDS011;2039;50.894;6.888;2024-01-15T04:20:08;37.23;;;14.60;;
4049;SDS011;2039;50.894;6.888;2024-01-15T04:22:35;39.30;;;13.77;;
4049;SDS011;2039;50.894;6.888;2024-01-15T04:25:01;36.72;;;13.73;;
4049;SDS011;2039;50.894;6.888;2024-01-15T04:27:27;40.73;;;13.73;;
4049;SDS011;2039;50.894;6.888;2024-01-15T04:29:52;38.23;;;12.17;;
4049;SDS011;2039;50.894;6.888;2024-01-15T04:32:18;41.33;;;15.60;;
4049;SDS011;2039;50.894;6.888;2024-01-15T04:34:44;39.90;;;13.90;;
4049;SDS011;2039;50.894;6.888;2024-01-15T04:37:10;36.05;;;13.43;;
4049;SDS011;2039;50.894;6.888;2024-01-15T04:39:36;37.17;;;12.73;;
4049;SDS011;2039;50.894;6.888;2024-01-15T04:42:02;31.97;;;12.97;;
4049;SDS011;2039;50.894;6.888;2024-01-15T04:44:28;36.05;;;12.43;;
4049;SDS011;2039;50.894;6.888;2024-01-15T04:46:54;38.38;;;13.50;;
4049;SDS011;2039;50.894;6.888;2024-01-15T04:49:20;39.70;;;12.33;;
4049;SDS011;2039;50.894;6.888;2024-01-15T04:51:45;30.93;;;11.30;;
4049;SDS011;2039;50.894;6.888;2024-01-15T04:54:11;33.27;;;12.50;;
4049;SDS011;2039;50.894;6.888;2024-01-15T04:56:37;35.83;;;11.40;;
4049;SDS011;2039;50.894;6.888;2024-01-15T04:59:03;39.30;;;12.37;;
4049;SDS011;2039;50.894;6.888;2024-01-15T05:01:31;33.53;;;11.27;;
4049;SDS011;2039;50.894;6.888;2024-01-15T05:03:57;33.08;;;12.43;;
4049;SDS011;2039;50.894;6.888;2024-01-15T05:06:24;32.15;;;11.25;;
4049;SDS011;2039;50.894;6.888;2024-01-15T05:08:49;29.73;;;10.90;;
4049;SDS011;2039;50.894;6.888;2024-01-15T05:11:15;35.97;;;11.80;;
4049;SDS011;2039;50.894;6.888;2024-01-15T05:13:41;33.63;;;11.73;;
4049;SDS011;2039;50.894;6.888;2024-01-15T05:16:07;32.80;;;11.40;;
4049;SDS011;2039;50.894;6.888;2024-01-15T05:18:32;31.60;;;10.70;;
4049;SDS011;2039;50.894;6.888;2024-01-15T05:20:58;32.87;;;10.70;;
4049;SDS011;2039;50.894;6.888;2024-01-15T05:23:24;31.40;;;10.23;;
4049;SDS011;2039;50.894;6.888;2024-01-15T05:25:50;30.60;;;10.97;;
4049;SDS011;2039;50.894;6.888;2024-01-15T05:28:15;37.63;;;10.27;;
4049;SDS011;2039;50.894;6.888;2024-01-15T05:30:41;34.73;;;10.23;;
4049;SDS011;2039;50.894;6.888;2024-01-15T05:33:07;29.57;;;9.43;;
4049;SDS011;2039;50.894;6.888;2024-01-15T05:35:33;33.20;;;10.60;;
4049;SDS011;2039;50.894;6.888;2024-01-15T05:37:59;33.60;;;10.45;;
4049;SDS011;2039;50.894;6.888;2024-01-15T05:40:25;32.17;;;9.90;;
4049;SDS011;2039;50.894;6.888;2024-01-15T05:42:50;29.70;;;9.53;;
4049;SDS011;2039;50.894;6.888;2024-01-15T05:45:16;26.70;;;9.77;;
4049;SDS011;2039;50.894;6.888;2024-01-15T05:47:42;29.27;;;9.63;;
4049;SDS011;2039;50.894;6.888;2024-01-15T05:50:11;36.72;;;11.25;;
4049;SDS011;2039;50.894;6.888;2024-01-15T05:52:37;26.02;;;9.00;;
4049;SDS011;2039;50.894;6.888;2024-01-15T05:55:03;28.13;;;9.90;;
4049;SDS011;2039;50.894;6.888;2024-01-15T05:57:29;33.35;;;9.60;;
4049;SDS011;2039;50.894;6.888;2024-01-15T05:59:55;31.75;;;9.68;;
4049;SDS011;2039;50.894;6.888;2024-01-15T06:02:21;30.50;;;10.00;;
4049;SDS011;2039;50.894;6.888;2024-01-15T06:04:47;27.23;;;10.00;;
4049;SDS011;2039;50.894;6.888;2024-01-15T06:07:12;27.00;;;9.50;;
4049;SDS011;2039;50.894;6.888;2024-01-15T06:09:38;30.53;;;9.13;;
4049;SDS011;2039;50.894;6.888;2024-01-15T06:12:04;27.90;;;9.57;;
4049;SDS011;2039;50.894;6.888;2024-01-15T06:14:31;28.23;;;11.35;;
4049;SDS011;2039;50.894;6.888;2024-01-15T06:16:57;27.90;;;9.93;;
4049;SDS011;2039;50.894;6.888;2024-01-15T06:19:23;28.10;;;9.97;;
4049;SDS011;2039;50.894;6.888;2024-01-15T06:21:48;33.40;;;11.53;;
4049;SDS011;2039;50.894;6.888;2024-01-15T06:24:14;35.40;;;11.00;;
4049;SDS011;2039;50.894;6.888;2024-01-15T06:26:40;25.58;;;8.70;;
4049;SDS011;2039;50.894;6.888;2024-01-15T06:29:06;31.60;;;10.17;;
4049;SDS011;2039;50.894;6.888;2024-01-15T06:31:32;27.57;;;9.60;;
4049;SDS011;2039;50.894;6.888;2024-01-15T06:33:57;29.27;;;9.73;;
4049;SDS011;2039;50.894;6.888;2024-01-15T06:36:23;39.03;;;10.70;;
4049;SDS011;2039;50.894;6.888;2024-01-15T06:38:49;27.57;;;8.63;;
4049;SDS011;2039;50.894;6.888;2024-01-15T06:41:14;31.73;;;9.80;;
4049;SDS011;2039;50.894;6.888;2024-01-15T06:43:40;32.23;;;10.27;;
4049;SDS011;2039;50.894;6.888;2024-01-15T06:46:05;30.80;;;9.97;;
4049;SDS011;2039;50.894;6.888;2024-01-15T06:48:31;30.30;;;10.13;;
4049;SDS011;2039;50.894;6.888;2024-01-15T06:50:57;28.10;;;10.63;;
4049;SDS011;2039;50.894;6.888;2024-01-15T06:53:22;27.40;;;9.10;;
4049;SDS011;2039;50.894;6.888;2024-01-15T06:55:48;37.00;;;11.00;;
4049;SDS011;2039;50.894;6.888;2024-01-15T06:58:16;33.85;;;13.30;;
4049;SDS011;2039;50.894;6.888;2024-01-15T07:00:41;29.80;;;9.73;;
4049;SDS011;2039;50.894;6.888;2024-01-15T07:03:07;35.07;;;12.27;;
4049;SDS011;2039;50.894;6.888;2024-01-15T07:05:33;30.03;;;9.73;;
4049;SDS011;2039;50.894;6.888;2024-01-15T07:07:58;40.70;;;13.20;;
4049;SDS011;2039;50.894;6.888;2024-01-15T07:10:24;36.80;;;9.87;;
4049;SDS011;2039;50.894;6.888;2024-01-15T07:12:51;31.90;;;9.65;;
4049;SDS011;2039;50.894;6.888;2024-01-15T07:15:16;29.23;;;10.60;;
4049;SDS011;2039;50.894;6.888;2024-01-15T07:17:42;28.97;;;9.47;;
4049;SDS011;2039;50.894;6.888;2024-01-15T07:20:08;28.60;;;10.60;;
4049;SDS011;2039;50.894;6.888;2024-01-15T07:22:37;26.98;;;10.23;;
4049;SDS011;2039;50.894;6.888;2024-01-15T07:25:03;25.73;;;8.63;;
4049;SDS011;2039;50.894;6.888;2024-01-15T07:27:30;32.17;;;10.38;;
4049;SDS011;2039;50.894;6.888;2024-01-15T07:29:56;29.95;;;10.70;;
4049;SDS011;2039;50.894;6.888;2024-01-15T07:32:22;33.67;;;11.30;;
4049;SDS011;2039;50.894;6.888;2024-01-15T07:34:47;31.17;;;11.10;;
4049;SDS011;2039;50.894;6.888;2024-01-15T07:37:14;31.50;;;10.93;;
4049;SDS011;2039;50.894;6.888;2024-01-15T07:39:40;33.73;;;11.90;;
4049;SDS011;2039;50.894;6.888;2024-01-15T07:42:05;31.17;;;11.37;;
4049;SDS011;2039;50.894;6.888;2024-01-15T07:44:31;33.20;;;12.70;;
4049;SDS011;2039;50.894;6.888;2024-01-15T07:46:57;37.13;;;10.87;;
4049;SDS011;2039;50.894;6.888;2024-01-15T07:49:22;33.60;;;11.00;;
4049;SDS011;2039;50.894;6.888;2024-01-15T07:51:48;37.43;;;12.00;;
4049;SDS011;2039;50.894;6.888;2024-01-15T07:54:14;33.43;;;11.10;;
4049;SDS011;2039;50.894;6.888;2024-01-15T07:59:25;31.13;;;13.82;;
4049;SDS011;2039;50.894;6.888;2024-01-15T08:01:52;31.38;;;11.13;;
4049;SDS011;2039;50.894;6.888;2024-01-15T08:04:18;35.50;;;12.65;;
4049;SDS011;2039;50.894;6.888;2024-01-15T08:06:45;36.15;;;11.05;;
4049;SDS011;2039;50.894;6.888;2024-01-15T08:09:11;32.85;;;13.77;;
4049;SDS011;2039;50.894;6.888;2024-01-15T08:11:40;33.03;;;11.00;;
4049;SDS011;2039;50.894;6.888;2024-01-15T08:14:07;28.80;;;10.73;;
4049;SDS011;2039;50.894;6.888;2024-01-15T08:16:33;33.85;;;11.18;;
4049;SDS011;2039;50.894;6.888;2024-01-15T08:18:58;37.87;;;12.37;;
4049;SDS011;2039;50.894;6.888;2024-01-15T08:21:24;32.30;;;10.77;;
4049;SDS011;2039;50.894;6.888;2024-01-15T08:23:50;27.70;;;10.30;;
4049;SDS011;2039;50.894;6.888;2024-01-15T08:26:15;38.43;;;12.80;;
4049;SDS011;2039;50.894;6.888;2024-01-15T08:28:41;32.87;;;11.73;;
4049;SDS011;2039;50.894;6.888;2024-01-15T08:31:07;38.63;;;12.27;;
4049;SDS011;2039;50.894;6.888;2024-01-15T08:33:33;32.20;;;11.17;;
4049;SDS011;2039;50.894;6.888;2024-01-15T08:35:58;28.67;;;11.30;;
4049;SDS011;2039;50.894;6.888;2024-01-15T08:38:24;32.33;;;12.43;;
4049;SDS011;2039;50.894;6.888;2024-01-15T08:40:50;35.55;;;11.52;;
4049;SDS011;2039;50.894;6.888;2024-01-15T08:43:18;31.42;;;11.60;;
4049;SDS011;2039;50.894;6.888;2024-01-15T08:45:44;30.90;;;11.10;;
4049;SDS011;2039;50.894;6.888;2024-01-15T08:48:10;34.60;;;11.93;;
4049;SDS011;2039;50.894;6.888;2024-01-15T08:50:35;36.30;;;11.70;;
4049;SDS011;2039;50.894;6.888;2024-01-15T08:53:01;32.13;;;10.43;;
4049;SDS011;2039;50.894;6.888;2024-01-15T08:55:30;27.27;;;10.60;;
4049;SDS011;2039;50.894;6.888;2024-01-15T08:57:56;29.05;;;10.15;;
4049;SDS011;2039;50.894;6.888;2024-01-15T09:00:22;30.57;;;9.53;;
4049;SDS011;2039;50.894;6.888;2024-01-15T09:02:48;31.10;;;9.47;;
4049;SDS011;2039;50.894;6.888;2024-01-15T09:05:13;26.97;;;8.47;;
4049;SDS011;2039;50.894;6.888;2024-01-15T09:07:39;34.03;;;8.70;;
4049;SDS011;2039;50.894;6.888;2024-01-15T09:10:05;24.33;;;8.60;;
4049;SDS011;2039;50.894;6.888;2024-01-15T09:12:31;32.33;;;9.00;;
4049;SDS011;2039;50.894;6.888;2024-01-15T09:14:57;21.50;;;6.13;;
4049;SDS011;2039;50.894;6.888;2024-01-15T09:17:22;23.57;;;6.77;;
4049;SDS011;2039;50.894;6.888;2024-01-15T09:19:48;27.60;;;8.00;;
4049;SDS011;2039;50.894;6.888;2024-01-15T09:22:15;24.90;;;7.18;;
4049;SDS011;2039;50.894;6.888;2024-01-15T09:24:43;21.35;;;6.07;;
4049;SDS011;2039;50.894;6.888;2024-01-15T09:27:09;30.13;;;7.50;;
4049;SDS011;2039;50.894;6.888;2024-01-15T09:29:35;23.90;;;6.90;;
4049;SDS011;2039;50.894;6.888;2024-01-15T09:32:04;27.60;;;7.10;;
4049;SDS011;2039;50.894;6.888;2024-01-15T09:34:31;27.85;;;7.00;;
4049;SDS011;2039;50.894;6.888;2024-01-15T09:36:57;22.40;;;5.40;;
4049;SDS011;2039;50.894;6.888;2024-01-15T09:39:22;25.27;;;5.90;;
4049;SDS011;2039;50.894;6.888;2024-01-15T09:41:48;21.33;;;6.03;;
4049;SDS011;2039;50.894;6.888;2024-01-15T09:44:15;21.67;;;6.03;;
4049;SDS011;2039;50.894;6.888;2024-01-15T09:46:41;24.90;;;5.80;;
4049;SDS011;2039;50.894;6.888;2024-01-15T09:49:09;23.05;;;5.72;;
4049;SDS011;2039;50.894;6.888;2024-01-15T09:51:35;24.33;;;7.07;;
4049;SDS011;2039;50.894;6.888;2024-01-15T09:54:02;19.52;;;5.70;;
4049;SDS011;2039;50.894;6.888;2024-01-15T09:56:29;22.13;;;5.88;;
4049;SDS011;2039;50.894;6.888;2024-01-15T09:58:56;23.70;;;7.15;;
4049;SDS011;2039;50.894;6.888;2024-01-15T10:01:22;24.73;;;6.63;;
4049;SDS011;2039;50.894;6.888;2024-01-15T10:03:48;26.25;;;6.85;;
4049;SDS011;2039;50.894;6.888;2024-01-15T10:06:15;20.95;;;6.47;;
4049;SDS011;2039;50.894;6.888;2024-01-15T10:08:48;23.15;;;7.97;;
4049;SDS011;2039;50.894;6.888;2024-01-15T10:11:16;21.20;;;6.40;;
4049;SDS011;2039;50.894;6.888;2024-01-15T10:13:45;22.10;;;7.10;;
4049;SDS011;2039;50.894;6.888;2024-01-15T10:16:11;20.80;;;5.80;;
4049;SDS011;2039;50.894;6.888;2024-01-15T10:18:37;22.03;;;7.00;;
4049;SDS011;2039;50.894;6.888;2024-01-15T10:21:05;23.45;;;6.60;;
4049;SDS011;2039;50.894;6.888;2024-01-15T10:23:33;21.38;;;5.13;;
4049;SDS011;2039;50.894;6.888;2024-01-15T10:25:58;21.07;;;5.10;;
4049;SDS011;2039;50.894;6.888;2024-01-15T10:28:28;20.38;;;6.03;;
4049;SDS011;2039;50.894;6.888;2024-01-15T10:30:56;19.70;;;5.07;;
4049;SDS011;2039;50.894;6.888;2024-01-15T10:33:24;18.50;;;4.40;;
4049;SDS011;2039;50.894;6.888;2024-01-15T10:35:56;22.45;;;4.68;;
4049;SDS011;2039;50.894;6.888;2024-01-15T10:38:23;21.95;;;4.90;;
4049;SDS011;2039;50.894;6.888;2024-01-15T10:40:53;24.08;;;5.63;;
4049;SDS011;2039;50.894;6.888;2024-01-15T10:43:20;19.80;;;5.43;;
4049;SDS011;2039;50.894;6.888;2024-01-15T10:45:47;20.20;;;6.10;;
4049;SDS011;2039;50.894;6.888;2024-01-15T10:48:14;22.15;;;6.03;;
4049;SDS011;2039;50.894;6.888;2024-01-15T10:50:42;23.23;;;6.07;;
4049;SDS011;2039;50.894;6.888;2024-01-15T10:53:09;24.25;;;6.85;;
4049;SDS011;2039;50.894;6.888;2024-01-15T10:55:38;19.65;;;5.35;;
4049;SDS011;2039;50.894;6.888;2024-01-15T10:58:06;18.95;;;4.95;;
4049;SDS011;2039;50.894;6.888;2024-01-15T11:00:33;18.87;;;4.83;;
4049;SDS011;2039;50.894;6.888;2024-01-15T11:03:00;19.48;;;5.03;;
4049;SDS011;2039;50.894;6.888;2024-01-15T11:05:27;22.90;;;4.35;;
4049;SDS011;2039;50.894;6.888;2024-01-15T11:07:56;19.83;;;4.50;;
4049;SDS011;2039;50.894;6.888;2024-01-15T11:10:44;17.88;;;3.55;;
4049;SDS011;2039;50.894;6.888;2024-01-15T11:13:19;17.75;;;3.90;;
4049;SDS011;2039;50.894;6.888;2024-01-15T11:16:01;19.92;;;3.95;;
4049;SDS011;2039;50.894;6.888;2024-01-15T11:18:42;19.70;;;3.95;;
4049;SDS011;2039;50.894;6.888;2024-01-15T11:21:23;20.25;;;5.50;;
4049;SDS011;2039;50.894;6.888;2024-01-15T11:29:09;20.40;;;4.75;;
4049;SDS011;2039;50.894;6.888;2024-01-15T11:31:57;19.90;;;5.20;;
4049;SDS011;2039;50.894;6.888;2024-01-15T11:37:15;21.58;;;5.60;;
4049;SDS011;2039;50.894;6.888;2024-01-15T11:39:41;21.93;;;6.23;;
4049;SDS011;2039;50.894;6.888;2024-01-15T11:42:11;20.42;;;5.95;;
4049;SDS011;2039;50.894;6.888;2024-01-15T11:44:38;20.90;;;5.93;;
4049;SDS011;2039;50.894;6.888;2024-01-15T11:47:05;19.48;;;5.15;;
4049;SDS011;2039;50.894;6.888;2024-01-15T11:50:10;19.52;;;5.00;;
4049;SDS011;2039;50.894;6.888;2024-01-15T11:52:34;20.60;;;5.80;;
4049;SDS011;2039;50.894;6.888;2024-01-15T11:55:04;22.83;;;6.00;;
4049;SDS011;2039;50.894;6.888;2024-01-15T12:00:11;20.55;;;6.65;;
4049;SDS011;2039;50.894;6.888;2024-01-15T12:02:39;22.65;;;6.70;;
4049;SDS011;2039;50.894;6.888;2024-01-15T12:05:09;28.48;;;8.40;;
4049;SDS011;2039;50.894;6.888;2024-01-15T12:07:37;25.90;;;7.82;;
4049;SDS011;2039;50.894;6.888;2024-01-15T12:10:10;21.58;;;6.95;;
4049;SDS011;2039;50.894;6.888;2024-01-15T12:15:14;22.88;;;6.20;;
4049;SDS011;2039;50.894;6.888;2024-01-15T12:17:40;20.52;;;5.65;;
4049;SDS011;2039;50.894;6.888;2024-01-15T12:20:06;22.47;;;5.77;;
4049;SDS011;2039;50.894;6.888;2024-01-15T12:22:32;23.23;;;6.30;;
4049;SDS011;2039;50.894;6.888;2024-01-15T12:24:58;21.40;;;5.33;;
4049;SDS011;2039;50.894;6.888;2024-01-15T12:27:24;28.33;;;5.40;;
4049;SDS011;2039;50.894;6.888;2024-01-15T12:29:52;21.35;;;4.78;;
4049;SDS011;2039;50.894;6.888;2024-01-15T12:32:18;23.35;;;5.55;;
4049;SDS011;2039;50.894;6.888;2024-01-15T12:34:44;21.40;;;4.97;;
4049;SDS011;2039;50.894;6.888;2024-01-15T12:37:10;21.83;;;4.93;;
4049;SDS011;2039;50.894;6.888;2024-01-15T12:39:37;28.33;;;4.68;;
4049;SDS011;2039;50.894;6.888;2024-01-15T12:42:03;20.73;;;5.13;;
4049;SDS011;2039;50.894;6.888;2024-01-15T12:44:29;22.55;;;5.20;;
4049;SDS011;2039;50.894;6.888;2024-01-15T12:46:55;23.47;;;5.50;;
4049;SDS011;2039;50.894;6.888;2024-01-15T12:49:23;30.25;;;5.65;;
4049;SDS011;2039;50.894;6.888;2024-01-15T12:51:53;21.45;;;4.80;;
4049;SDS011;2039;50.894;6.888;2024-01-15T12:54:22;25.45;;;4.40;;
4049;SDS011;2039;50.894;6.888;2024-01-15T12:56:51;24.48;;;4.40;;
4049;SDS011;2039;50.894;6.888;2024-01-15T12:59:17;20.20;;;3.97;;
4049;SDS011;2039;50.894;6.888;2024-01-15T13:01:44;21.50;;;4.40;;
4049;SDS011;2039;50.894;6.888;2024-01-15T13:04:11;21.65;;;4.35;;
4049;SDS011;2039;50.894;6.888;2024-01-15T13:06:45;27.23;;;5.07;;
4049;SDS011;2039;50.894;6.888;2024-01-15T13:09:11;21.17;;;4.10;;
4049;SDS011;2039;50.894;6.888;2024-01-15T13:11:36;19.63;;;3.73;;
4049;SDS011;2039;50.894;6.888;2024-01-15T13:14:02;18.17;;;3.30;;
4049;SDS011;2039;50.894;6.888;2024-01-15T13:16:28;17.80;;;3.80;;
4049;SDS011;2039;50.894;6.888;2024-01-15T13:18:54;24.33;;;4.40;;
4049;SDS011;2039;50.894;6.888;2024-01-15T13:21:21;18.85;;;3.90;;
4049;SDS011;2039;50.894;6.888;2024-01-15T13:23:47;21.30;;;3.90;;
4049;SDS011;2039;50.894;6.888;2024-01-15T13:26:13;18.97;;;3.80;;
4049;SDS011;2039;50.894;6.888;2024-01-15T13:28:39;22.90;;;4.90;;
4049;SDS011;2039;50.894;6.888;2024-01-15T13:31:05;18.87;;;3.70;;
4049;SDS011;2039;50.894;6.888;2024-01-15T13:33:30;26.47;;;4.20;;
4049;SDS011;2039;50.894;6.888;2024-01-15T13:35:56;20.53;;;4.87;;
4049;SDS011;2039;50.894;6.888;2024-01-15T13:38:22;23.37;;;4.87;;
4049;SDS011;2039;50.894;6.888;2024-01-15T13:40:49;23.08;;;4.30;;
4049;SDS011;2039;50.894;6.888;2024-01-15T13:43:14;23.27;;;5.00;;
4049;SDS011;2039;50.894;6.888;2024-01-15T13:45:41;22.63;;;5.00;;
4049;SDS011;2039;50.894;6.888;2024-01-15T13:48:07;19.58;;;4.90;;
4049;SDS011;2039;50.894;6.888;2024-01-15T13:50:33;24.45;;;5.05;;
4049;SDS011;2039;50.894;6.888;2024-01-15T13:53:01;19.77;;;5.45;;
4049;SDS011;2039;50.894;6.888;2024-01-15T13:55:28;19.98;;;3.42;;
4049;SDS011;2039;50.894;6.888;2024-01-15T13:57:54;17.75;;;3.10;;
4049;SDS011;2039;50.894;6.888;2024-01-15T14:00:20;19.37;;;3.40;;
4049;SDS011;2039;50.894;6.888;2024-01-15T14:02:46;19.90;;;3.20;;
4049;SDS011;2039;50.894;6.888;2024-01-15T14:05:12;20.40;;;4.05;;
4049;SDS011;2039;50.894;6.888;2024-01-15T14:07:39;17.45;;;2.85;;
4049;SDS011;2039;50.894;6.888;2024-01-15T14:10:04;19.80;;;3.33;;
4049;SDS011;2039;50.894;6.888;2024-01-15T14:12:33;24.05;;;4.72;;
4049;SDS011;2039;50.894;6.888;2024-01-15T14:14:59;18.75;;;4.70;;
4049;SDS011;2039;50.894;6.888;2024-01-15T14:17:26;19.77;;;4.38;;
4049;SDS011;2039;50.894;6.888;2024-01-15T14:19:52;20.55;;;4.15;;
4049;SDS011;2039;50.894;6.888;2024-01-15T14:22:18;19.30;;;3.83;;
4049;SDS011;2039;50.894;6.888;2024-01-15T14:24:44;20.53;;;4.30;;
4049;SDS011;2039;50.894;6.888;2024-01-15T14:27:09;18.73;;;3.23;;
4049;SDS011;2039;50.894;6.888;2024-01-15T14:29:35;19.73;;;3.50;;
4049;SDS011;2039;50.894;6.888;2024-01-15T14:32:01;16.95;;;3.13;;
4049;SDS011;2039;50.894;6.888;2024-01-15T14:34:27;18.47;;;3.13;;
4049;SDS011;2039;50.894;6.888;2024-01-15T14:36:53;20.67;;;3.03;;
4049;SDS011;2039;50.894;6.888;2024-01-15T14:39:19;20.33;;;3.10;;
4049;SDS011;2039;50.894;6.888;2024-01-15T14:41:46;17.58;;;3.03;;
4049;SDS011;2039;50.894;6.888;2024-01-15T14:44:12;18.77;;;3.00;;
4049;SDS011;2039;50.894;6.888;2024-01-15T14:46:38;17.37;;;2.57;;
4049;SDS011;2039;50.894;6.888;2024-01-15T14:49:03;16.50;;;2.30;;
4049;SDS011;2039;50.894;6.888;2024-01-15T14:51:29;17.77;;;2.70;;
4049;SDS011;2039;50.894;6.888;2024-01-15T14:53:55;16.60;;;2.07;;
4049;SDS011;2039;50.894;6.888;2024-01-15T14:56:21;19.20;;;2.53;;
4049;SDS011;2039;50.894;6.888;2024-01-15T14:58:47;16.57;;;2.50;;
4049;SDS011;2039;50.894;6.888;2024-01-15T15:01:13;19.20;;;2.95;;
4049;SDS011;2039;50.894;6.888;2024-01-15T15:03:39;18.25;;;3.42;;
4049;SDS011;2039;50.894;6.888;2024-01-15T15:06:05;18.40;;;3.20;;